createdAt,value
2022-08-19T00:02:00.107Z,18.75
2022-08-19T00:04:31.295Z,18.77
2022-08-19T00:07:00.719Z,18.76
2022-08-19T00:09:30.268Z,18.62
2022-08-19T00:12:00.881Z,18.62
2022-08-19T00:14:32.990Z,18.76
2022-08-19T00:17:02.413Z,18.75
2022-08-19T00:19:31.356Z,18.77
2022-08-19T00:22:00.352Z,18.80
2022-08-19T00:24:29.841Z,18.74
2022-08-19T00:27:25.143Z,18.70
2022-08-19T00:29:52.320Z,18.70
2022-08-19T00:32:21.428Z,18.42
2022-08-19T00:34:50.093Z,18.66
2022-08-19T00:37:19.266Z,18.64
2022-08-19T00:39:49.267Z,18.46
2022-08-19T00:42:18.189Z,18.60
2022-08-19T00:44:46.842Z,18.58
2022-08-19T00:47:17.410Z,18.59
2022-08-19T00:49:52.402Z,18.59
2022-08-19T00:52:25.266Z,17.50
2022-08-19T00:54:55.208Z,18.38
2022-08-19T00:57:29.025Z,18.57
2022-08-19T01:00:03.138Z,17.47
2022-08-19T01:02:34.768Z,18.54
2022-08-19T01:05:07.001Z,18.53
2022-08-19T01:07:38.270Z,18.03
2022-08-19T01:10:10.104Z,18.52
2022-08-19T01:12:39.265Z,17.60
2022-08-19T01:15:10.569Z,18.56
2022-08-19T01:17:42.873Z,18.56
2022-08-19T01:20:15.621Z,18.10
2022-08-19T01:22:47.986Z,18.38
2022-08-19T01:25:18.634Z,18.46
2022-08-19T01:27:52.119Z,18.23
2022-08-19T01:30:24.917Z,18.36
2022-08-19T01:32:54.603Z,18.48
2022-08-19T01:35:24.988Z,18.49
2022-08-19T01:37:57.733Z,18.38
2022-08-19T01:40:29.005Z,18.52
2022-08-19T01:42:57.589Z,18.53
2022-08-19T01:45:28.988Z,18.45
2022-08-19T01:48:01.833Z,18.38
2022-08-19T01:50:31.327Z,18.41
2022-08-19T01:53:06.597Z,18.47
2022-08-19T01:55:40.608Z,18.48
2022-08-19T01:58:13.307Z,18.37
2022-08-19T02:00:42.011Z,18.44
2022-08-19T02:03:12.470Z,18.44
2022-08-19T02:05:41.945Z,18.30
2022-08-19T02:08:13.448Z,18.37
2022-08-19T02:10:43.594Z,18.43
2022-08-19T02:13:13.154Z,18.46
2022-08-19T02:15:41.671Z,18.47
2022-08-19T02:18:11.858Z,18.29
2022-08-19T02:20:42.559Z,18.44
2022-08-19T02:23:16.174Z,18.44
2022-08-19T02:25:45.516Z,18.43
2022-08-19T02:28:18.304Z,18.43
2022-08-19T02:30:48.994Z,18.43
2022-08-19T02:33:18.460Z,18.40
2022-08-19T02:35:47.505Z,18.17
2022-08-19T02:38:28.322Z,17.82
2022-08-19T02:40:59.802Z,17.97
2022-08-19T02:43:29.284Z,18.02
2022-08-19T02:46:02.265Z,18.28
2022-08-19T02:48:31.206Z,17.87
2022-08-19T02:51:00.606Z,18.32
2022-08-19T02:53:31.021Z,18.28
2022-08-19T02:55:59.910Z,18.27
2022-08-19T02:58:29.637Z,18.28
2022-08-19T03:00:59.926Z,18.25
2022-08-19T03:03:29.059Z,18.23
2022-08-19T03:06:09.490Z,18.13
2022-08-19T03:08:40.074Z,18.23
2022-08-19T03:11:09.688Z,18.20
2022-08-19T03:13:38.241Z,18.17
2022-08-19T03:16:07.764Z,18.18
2022-08-19T03:18:36.283Z,18.18
2022-08-19T03:21:05.684Z,18.16
2022-08-19T03:23:34.474Z,18.18
2022-08-19T03:26:16.125Z,18.18
2022-08-19T03:28:50.976Z,18.18
2022-08-19T03:31:43.730Z,18.17
2022-08-19T03:34:14.245Z,16.76
2022-08-19T03:36:43.448Z,18.17
2022-08-19T03:39:12.984Z,18.18
2022-08-19T03:41:46.491Z,18.21
2022-08-19T03:44:19.258Z,18.23
2022-08-19T03:46:49.382Z,18.22
2022-08-19T03:49:18.717Z,18.19
2022-08-19T03:51:49.652Z,18.18
2022-08-19T03:54:21.186Z,18.18
2022-08-19T03:56:52.605Z,18.19
2022-08-19T03:59:27.104Z,17.69
2022-08-19T04:01:57.609Z,18.20
2022-08-19T04:04:29.218Z,18.22
2022-08-19T04:06:58.756Z,18.23
2022-08-19T04:09:28.586Z,18.22
2022-08-19T04:12:00.076Z,18.20
2022-08-19T04:14:31.419Z,18.16
2022-08-19T04:17:00.784Z,16.99
2022-08-19T04:19:32.470Z,18.03
2022-08-19T04:22:01.285Z,18.12
2022-08-19T04:24:29.886Z,18.11
2022-08-19T04:27:01.349Z,18.13
2022-08-19T04:29:30.656Z,18.13
2022-08-19T04:32:00.147Z,18.09
2022-08-19T04:35:02.779Z,17.92
2022-08-19T04:37:27.482Z,16.18
2022-08-19T04:40:20.733Z,18.00
2022-08-19T04:42:50.697Z,18.00
2022-08-19T04:45:19.387Z,18.02
2022-08-19T04:47:58.675Z,17.88
2022-08-19T04:50:43.881Z,17.61
2022-08-19T04:53:13.065Z,18.07
2022-08-19T04:55:43.725Z,18.09
2022-08-19T04:58:13.672Z,18.02
2022-08-19T05:00:42.984Z,18.08
2022-08-19T05:03:11.626Z,17.80
2022-08-19T05:05:45.057Z,18.07
2022-08-19T05:08:15.211Z,18.06
2022-08-19T05:10:43.933Z,18.04
2022-08-19T05:13:14.011Z,18.03
2022-08-19T05:15:42.678Z,17.92
2022-08-19T05:18:31.257Z,17.69
2022-08-19T05:21:16.732Z,18.07
2022-08-19T05:23:45.849Z,18.03
2022-08-19T05:26:14.980Z,18.10
2022-08-19T05:28:45.130Z,17.99
2022-08-19T05:31:14.393Z,18.04
2022-08-19T05:33:42.813Z,18.01
2022-08-19T05:36:12.212Z,17.95
2022-08-19T05:38:40.794Z,18.01
2022-08-19T05:41:10.474Z,18.02
2022-08-19T05:43:40.006Z,17.82
2022-08-19T05:46:11.521Z,17.79
2022-08-19T05:48:40.568Z,18.07
2022-08-19T05:51:10.305Z,18.09
2022-08-19T05:53:39.200Z,18.06
2022-08-19T05:56:08.681Z,18.08
2022-08-19T05:58:37.861Z,18.09
2022-08-19T06:01:11.952Z,18.09
2022-08-19T06:03:41.860Z,18.09
2022-08-19T06:06:12.167Z,18.06
2022-08-19T06:08:41.818Z,17.66
2022-08-19T06:11:20.401Z,17.96
2022-08-19T06:13:52.173Z,18.06
2022-08-19T06:16:29.002Z,18.03
2022-08-19T06:19:01.686Z,18.01
2022-08-19T06:21:32.084Z,17.94
2022-08-19T06:24:01.481Z,18.02
2022-08-19T06:26:30.013Z,18.02
2022-08-19T06:28:58.510Z,17.97
2022-08-19T06:31:28.918Z,18.00
2022-08-19T06:33:59.420Z,18.02
2022-08-19T06:36:32.448Z,17.99
2022-08-19T06:39:02.144Z,17.90
2022-08-19T06:41:31.624Z,17.50
2022-08-19T06:44:00.300Z,18.00
2022-08-19T06:46:29.098Z,17.99
2022-08-19T06:48:59.266Z,17.74
2022-08-19T06:54:00.588Z,18.01
2022-08-19T06:56:34.804Z,18.00
2022-08-19T06:59:04.721Z,17.98
2022-08-19T07:01:36.145Z,17.68
2022-08-19T07:04:07.009Z,17.99
2022-08-19T07:06:43.440Z,17.96
2022-08-19T07:09:18.381Z,17.98
2022-08-19T07:11:49.249Z,18.00
2022-08-19T07:14:20.355Z,17.97
2022-08-19T07:16:50.833Z,17.94
2022-08-19T07:19:22.244Z,17.83
2022-08-19T07:21:53.953Z,17.75
2022-08-19T07:24:24.949Z,17.87
2022-08-19T07:26:55.517Z,17.82
2022-08-19T07:29:25.818Z,17.78
2022-08-19T07:32:00.195Z,17.76
2022-08-19T07:34:35.636Z,17.79
2022-08-19T07:37:05.077Z,17.63
2022-08-19T07:39:36.334Z,17.79
2022-08-19T07:42:08.871Z,17.78
2022-08-19T07:47:47.192Z,17.60
2022-08-19T07:50:01.673Z,17.63
2022-08-19T07:52:30.510Z,17.70
2022-08-19T07:55:01.118Z,17.70
2022-08-19T07:57:30.788Z,17.69
2022-08-19T07:59:59.341Z,17.39
2022-08-19T08:02:28.249Z,17.72
2022-08-19T08:05:28.457Z,17.69
2022-08-19T08:08:15.942Z,17.45
2022-08-19T08:10:44.429Z,17.66
2022-08-19T08:13:21.731Z,17.76
2022-08-19T08:15:52.243Z,17.78
2022-08-19T08:18:23.620Z,17.68
2022-08-19T08:20:59.277Z,17.81
2022-08-19T08:23:31.391Z,17.86
2022-08-19T08:26:00.961Z,17.86
2022-08-19T08:28:30.795Z,17.82
2022-08-19T08:31:00.881Z,17.88
2022-08-19T08:33:34.026Z,17.91
2022-08-19T08:36:04.331Z,17.88
2022-08-19T08:38:39.662Z,17.85
2022-08-19T08:41:20.606Z,17.82
2022-08-19T08:43:53.208Z,17.76
2022-08-19T08:46:31.371Z,17.75
2022-08-19T08:49:09.987Z,17.71
2022-08-19T08:51:44.734Z,17.71
2022-08-19T08:54:22.101Z,17.68
2022-08-19T08:56:54.930Z,17.63
2022-08-19T08:59:27.326Z,17.59
2022-08-19T09:01:55.967Z,17.57
2022-08-19T09:04:24.861Z,17.54
2022-08-19T09:06:58.659Z,17.54
2022-08-19T09:09:33.697Z,17.53
2022-08-19T09:12:11.974Z,17.56
2022-08-19T09:14:51.737Z,17.55
2022-08-19T09:17:29.301Z,17.41
2022-08-19T09:20:02.080Z,17.50
2022-08-19T09:22:30.884Z,17.51
2022-08-19T09:25:00.886Z,17.56
2022-08-19T09:27:42.539Z,17.55
2022-08-19T09:30:15.921Z,17.51
2022-08-19T09:32:45.324Z,17.18
2022-08-19T09:35:16.905Z,17.33
2022-08-19T09:37:46.025Z,17.37
2022-08-19T09:40:16.674Z,17.52
2022-08-19T09:42:50.379Z,17.51
2022-08-19T09:45:23.468Z,17.53
2022-08-19T09:47:54.800Z,17.56
2022-08-19T09:50:25.489Z,17.61
2022-08-19T09:52:58.095Z,17.47
2022-08-19T09:55:32.062Z,17.61
2022-08-19T09:58:02.642Z,17.63
2022-08-19T10:00:32.459Z,17.67
2022-08-19T10:03:01.226Z,17.59
2022-08-19T10:05:48.690Z,17.71
2022-08-19T10:08:20.647Z,17.77
2022-08-19T10:10:51.766Z,17.82
2022-08-19T10:13:26.905Z,17.88
2022-08-19T10:15:58.123Z,17.96
2022-08-19T10:18:28.190Z,18.05
2022-08-19T10:21:08.757Z,18.13
2022-08-19T10:23:38.825Z,18.23
2022-08-19T10:26:10.005Z,18.34
2022-08-19T10:28:39.589Z,18.27
2022-08-19T10:31:14.244Z,18.46
2022-08-19T10:33:54.013Z,18.51
2022-08-19T10:36:26.139Z,18.38
2022-08-19T10:38:58.592Z,18.69
2022-08-19T10:41:31.098Z,18.77
2022-08-19T10:44:04.146Z,18.82
2022-08-19T10:46:34.404Z,18.88
2022-08-19T10:49:04.233Z,18.93
2022-08-19T10:51:50.257Z,19.01
2022-08-19T10:54:31.116Z,18.97
2022-08-19T10:57:03.104Z,19.19
2022-08-19T10:59:35.982Z,18.78
2022-08-19T11:02:06.974Z,19.36
2022-08-19T11:04:36.003Z,19.45
2022-08-19T11:07:06.036Z,19.36
2022-08-19T11:09:40.764Z,19.61
2022-08-19T11:12:13.875Z,19.67
2022-08-19T11:14:42.465Z,19.66
2022-08-19T11:17:12.392Z,19.56
2022-08-19T11:19:40.859Z,19.68
2022-08-19T11:22:10.554Z,19.63
2022-08-19T11:24:45.482Z,19.58
2022-08-19T11:27:15.457Z,19.59
2022-08-19T11:29:43.888Z,19.64
2022-08-19T11:32:14.366Z,19.65
2022-08-19T11:34:43.355Z,19.67
2022-08-19T11:37:12.073Z,19.66
2022-08-19T11:39:41.196Z,19.65
2022-08-19T11:42:24.039Z,19.67
2022-08-19T11:44:54.313Z,19.65
2022-08-19T11:47:23.176Z,19.65
2022-08-19T11:49:52.374Z,19.68
2022-08-19T11:52:20.873Z,19.72
2022-08-19T11:54:50.122Z,19.77
2022-08-19T11:57:19.686Z,19.85
2022-08-19T11:59:51.780Z,19.92
2022-08-19T12:02:22.822Z,19.97
2022-08-19T12:04:51.655Z,19.93
2022-08-19T12:07:20.572Z,20.06
2022-08-19T12:09:49.068Z,20.08
2022-08-19T12:12:18.070Z,20.22
2022-08-19T12:14:47.665Z,20.23
2022-08-19T12:17:16.436Z,20.23
2022-08-19T12:19:46.379Z,20.24
2022-08-19T12:22:15.210Z,20.23
2022-08-19T12:24:44.014Z,20.20
2022-08-19T12:27:13.074Z,20.18
2022-08-19T12:29:42.037Z,20.17
2022-08-19T12:32:12.199Z,20.19
2022-08-19T12:34:41.927Z,20.18
2022-08-19T12:37:12.106Z,20.22
2022-08-19T12:39:42.947Z,19.97
2022-08-19T12:42:13.511Z,19.94
2022-08-19T12:44:44.348Z,20.33
2022-08-19T12:47:15.540Z,19.96
2022-08-19T12:49:54.544Z,20.08
2022-08-19T12:52:28.321Z,20.45
2022-08-19T12:54:58.573Z,20.53
2022-08-19T12:57:32.027Z,20.62
2022-08-19T13:00:05.277Z,20.63
2022-08-19T13:02:39.019Z,20.41
2022-08-19T13:05:12.290Z,20.77
2022-08-19T13:07:44.994Z,20.81
2022-08-19T13:10:16.504Z,20.66
2022-08-19T13:12:45.403Z,20.85
2022-08-19T13:15:15.113Z,20.88
2022-08-19T13:17:44.175Z,20.68
2022-08-19T13:20:13.733Z,20.80
2022-08-19T13:22:44.198Z,20.53
2022-08-19T13:25:13.768Z,20.78
2022-08-19T13:27:42.933Z,20.58
2022-08-19T13:30:31.197Z,20.78
2022-08-19T13:33:16.287Z,20.72
2022-08-19T13:35:48.396Z,20.74
2022-08-19T13:38:21.538Z,20.55
2022-08-19T13:40:52.616Z,20.71
2022-08-19T13:43:23.895Z,20.74
2022-08-19T13:45:56.549Z,20.78
2022-08-19T13:48:27.802Z,20.79
2022-08-19T13:50:57.193Z,20.71
2022-08-19T13:53:27.193Z,20.82
2022-08-19T13:55:55.894Z,20.78
2022-08-19T13:58:24.917Z,20.70
2022-08-19T14:00:53.734Z,20.62
2022-08-19T14:03:22.381Z,20.59
2022-08-19T14:05:50.900Z,20.57
2022-08-19T14:08:20.380Z,20.54
2022-08-19T14:10:50.513Z,20.33
2022-08-19T14:13:22.489Z,20.51
2022-08-19T14:15:52.086Z,20.47
2022-08-19T14:18:21.188Z,20.45
2022-08-19T14:20:50.205Z,20.46
2022-08-19T14:23:18.833Z,20.39
2022-08-19T14:25:48.076Z,20.37
2022-08-19T14:28:18.429Z,20.36
2022-08-19T14:30:47.417Z,20.35
2022-08-19T14:33:15.930Z,20.33
2022-08-19T14:35:45.908Z,20.31
2022-08-19T14:38:31.158Z,20.28
2022-08-19T14:41:10.073Z,20.30
2022-08-19T14:43:40.666Z,20.04
2022-08-19T14:46:11.538Z,20.27
2022-08-19T14:48:41.443Z,20.24
2022-08-19T14:51:10.785Z,20.23
2022-08-19T14:53:39.597Z,19.98
2022-08-19T14:56:11.364Z,20.26
2022-08-19T14:58:42.591Z,20.27
2022-08-19T15:01:12.749Z,20.26
2022-08-19T15:03:42.314Z,20.27
2022-08-19T15:06:12.771Z,20.26
2022-08-19T15:08:44.225Z,20.29
2022-08-19T15:11:15.614Z,20.25
2022-08-19T15:13:47.858Z,20.32
2022-08-19T15:16:18.079Z,20.37
2022-08-19T15:18:47.836Z,20.18
2022-08-19T15:21:26.810Z,20.37
2022-08-19T15:23:57.663Z,20.39
2022-08-19T15:26:27.495Z,20.42
2022-08-19T15:28:57.473Z,20.46
2022-08-19T15:31:28.838Z,20.51
2022-08-19T15:33:59.138Z,20.31
2022-08-19T15:36:28.061Z,20.57
2022-08-19T15:38:57.068Z,20.01
2022-08-19T15:41:29.161Z,20.60
2022-08-19T15:44:00.895Z,20.61
2022-08-19T15:46:32.397Z,20.48
2022-08-19T15:49:02.660Z,20.61
2022-08-19T15:51:35.534Z,20.50
2022-08-19T15:54:05.132Z,20.61
2022-08-19T15:57:06.989Z,20.65
2022-08-19T15:59:56.001Z,20.66
2022-08-19T16:02:46.805Z,20.68
2022-08-19T16:05:32.106Z,20.71
2022-08-19T16:08:01.186Z,20.74
2022-08-19T16:10:30.232Z,20.77
2022-08-19T16:13:00.405Z,20.50
2022-08-19T16:15:32.373Z,20.75
2022-08-19T16:18:02.498Z,20.77
2022-08-19T16:20:31.873Z,20.73
2022-08-19T16:23:04.868Z,20.70
2022-08-19T16:25:33.816Z,20.60
2022-08-19T16:28:07.111Z,20.64
2022-08-19T16:30:40.149Z,20.67
2022-08-19T16:33:10.246Z,20.62
2022-08-19T16:35:38.944Z,20.64
2022-08-19T16:38:08.272Z,20.66
2022-08-19T16:40:37.134Z,20.70
2022-08-19T16:43:08.572Z,20.75
2022-08-19T16:45:38.667Z,20.82
2022-08-19T16:48:12.609Z,20.87
2022-08-19T16:50:49.108Z,20.92
2022-08-19T16:53:20.643Z,20.67
2022-08-19T16:55:51.438Z,19.83
2022-08-19T16:58:20.466Z,20.88
2022-08-19T17:01:03.904Z,20.81
2022-08-19T17:03:36.303Z,20.86
2022-08-19T17:06:18.440Z,20.85
2022-08-19T17:08:50.447Z,20.71
2022-08-19T17:11:19.934Z,20.85
2022-08-19T17:13:49.606Z,20.86
2022-08-19T17:16:20.023Z,20.83
2022-08-19T17:18:52.414Z,20.80
2022-08-19T17:21:21.234Z,20.78
2022-08-19T17:23:50.240Z,20.68
2022-08-19T17:26:19.876Z,20.75
2022-08-19T17:28:50.113Z,20.73
2022-08-19T17:31:23.286Z,20.72
2022-08-19T17:33:52.447Z,20.45
2022-08-19T17:36:24.576Z,20.40
2022-08-19T17:38:55.460Z,20.64
2022-08-19T17:41:24.443Z,20.62
2022-08-19T17:43:53.053Z,20.60
2022-08-19T17:46:23.018Z,20.55
2022-08-19T17:48:55.331Z,20.50
2022-08-19T17:51:27.587Z,20.45
2022-08-19T17:53:56.461Z,20.29
2022-08-19T17:56:25.476Z,20.36
2022-08-19T17:58:59.893Z,20.32
2022-08-19T18:01:52.713Z,20.27
2022-08-19T18:04:21.513Z,20.21
2022-08-19T18:06:53.624Z,20.18
2022-08-19T18:09:25.049Z,20.14
2022-08-19T18:11:55.449Z,20.13
2022-08-19T18:14:33.485Z,19.96
2022-08-19T18:17:09.873Z,19.87
2022-08-19T18:19:41.893Z,19.63
2022-08-19T18:22:13.574Z,20.02
2022-08-19T18:24:46.033Z,19.54
2022-08-19T18:27:14.938Z,19.99
2022-08-19T18:29:43.622Z,20.00
2022-08-19T18:32:14.277Z,19.98
2022-08-19T18:34:44.761Z,19.96
2022-08-19T18:37:14.007Z,19.83
2022-08-19T18:39:59.687Z,19.85
2022-08-19T18:42:45.380Z,19.80
2022-08-19T18:45:30.933Z,19.77
2022-08-19T18:48:27.569Z,19.74
2022-08-19T18:50:58.599Z,19.72
2022-08-19T18:53:29.556Z,19.69
2022-08-19T18:55:59.050Z,19.67
2022-08-19T18:58:32.529Z,19.67
2022-08-19T19:01:01.291Z,19.53
2022-08-19T19:03:31.901Z,19.56
2022-08-19T19:06:00.337Z,19.45
2022-08-19T19:08:28.886Z,19.56
2022-08-19T19:10:59.088Z,19.54
2022-08-19T19:13:29.226Z,19.53
2022-08-19T19:15:57.905Z,19.50
2022-08-19T19:18:26.671Z,19.27
2022-08-19T19:20:57.789Z,19.48
2022-08-19T19:23:26.666Z,19.47
2022-08-19T19:25:55.157Z,19.33
2022-08-19T19:28:25.856Z,19.42
2022-08-19T19:30:57.671Z,19.40
2022-08-19T19:33:26.365Z,19.36
2022-08-19T19:35:56.709Z,19.33
2022-08-19T19:38:25.251Z,19.33
2022-08-19T19:40:53.682Z,19.32
2022-08-19T19:43:22.561Z,19.32
2022-08-19T19:45:52.196Z,19.30
2022-08-19T19:48:20.804Z,19.26
2022-08-19T19:50:56.182Z,18.46
2022-08-19T19:53:27.922Z,19.20
2022-08-19T19:55:58.837Z,19.15
2022-08-19T19:58:28.811Z,17.89
2022-08-19T20:00:59.160Z,19.10
2022-08-19T20:03:29.858Z,19.13
2022-08-19T20:05:59.670Z,19.13
2022-08-19T20:08:47.440Z,19.05
2022-08-19T20:11:31.575Z,19.10
2022-08-19T20:14:02.453Z,19.07
2022-08-19T20:16:32.137Z,19.06
2022-08-19T20:19:02.037Z,19.05
2022-08-19T20:21:32.753Z,19.06
2022-08-19T20:24:10.059Z,19.05
2022-08-19T20:26:39.061Z,19.02
2022-08-19T20:29:37.377Z,19.01
2022-08-19T20:31:59.003Z,18.71
2022-08-19T20:34:29.108Z,18.95
2022-08-19T20:36:57.828Z,18.94
2022-08-19T20:39:28.002Z,18.92
2022-08-19T20:41:56.716Z,18.90
2022-08-19T20:44:26.364Z,18.87
2022-08-19T20:46:57.575Z,18.86
2022-08-19T20:49:28.268Z,18.86
2022-08-19T20:51:58.610Z,18.86
2022-08-19T20:54:28.705Z,18.85
2022-08-19T20:56:57.629Z,18.69
2022-08-19T20:59:27.328Z,18.81
2022-08-19T21:01:56.201Z,18.80
2022-08-19T21:04:25.054Z,18.80
2022-08-19T21:06:53.631Z,18.76
2022-08-19T21:09:22.654Z,18.73
2022-08-19T21:11:53.476Z,18.72
2022-08-19T21:14:23.356Z,18.71
2022-08-19T21:16:51.864Z,18.71
2022-08-19T21:19:23.951Z,18.66
2022-08-19T21:21:52.994Z,18.64
2022-08-19T21:24:21.757Z,18.63
2022-08-19T21:27:01.188Z,18.61
2022-08-19T21:29:32.195Z,18.60
2022-08-19T21:32:00.733Z,18.57
2022-08-19T21:34:30.292Z,18.56
2022-08-19T21:36:58.900Z,18.58
2022-08-19T21:39:27.395Z,18.32
2022-08-19T21:41:56.198Z,18.57
2022-08-19T21:44:26.729Z,18.54
2022-08-19T21:46:55.091Z,18.50
2022-08-19T21:49:24.041Z,18.47
2022-08-19T21:51:52.751Z,18.37
2022-08-19T21:54:21.446Z,18.28
2022-08-19T21:56:50.546Z,18.41
2022-08-19T21:59:19.026Z,18.41
2022-08-19T22:01:56.650Z,18.40
2022-08-19T22:04:30.992Z,18.36
2022-08-19T22:06:59.449Z,18.37
2022-08-19T22:09:27.885Z,18.34
2022-08-19T22:11:56.338Z,18.20
2022-08-19T22:14:24.843Z,18.32
2022-08-19T22:16:54.821Z,18.32
2022-08-19T22:19:23.356Z,17.90
2022-08-19T22:21:51.762Z,18.32
2022-08-19T22:24:20.220Z,17.57
2022-08-19T22:26:48.710Z,18.30
2022-08-19T22:29:18.116Z,18.30
2022-08-19T22:31:58.218Z,18.22
2022-08-19T22:34:26.917Z,18.28
2022-08-19T22:36:55.426Z,18.28
2022-08-19T22:39:23.903Z,18.29
2022-08-19T22:41:52.433Z,18.18
2022-08-19T22:44:21.154Z,18.30
2022-08-19T22:46:49.641Z,18.29
2022-08-19T22:49:19.577Z,18.28
2022-08-19T22:52:05.359Z,18.26
2022-08-19T22:54:34.117Z,18.23
2022-08-19T22:57:02.882Z,18.22
2022-08-19T22:59:31.357Z,17.70
2022-08-19T23:01:59.775Z,18.19
2022-08-19T23:04:29.806Z,18.17
2022-08-19T23:06:58.219Z,18.17
2022-08-19T23:09:31.505Z,18.15
2022-08-19T23:12:00.773Z,17.61
2022-08-19T23:14:31.077Z,18.13
2022-08-19T23:16:59.526Z,18.10
2022-08-19T23:19:29.973Z,18.09
2022-08-19T23:21:59.011Z,18.06
2022-08-19T23:24:27.822Z,18.05
2022-08-19T23:27:13.583Z,18.05
2022-08-19T23:30:01.915Z,18.03
2022-08-19T23:32:35.208Z,18.02
2022-08-19T23:35:06.018Z,18.02
2022-08-19T23:37:34.488Z,18.01
2022-08-19T23:40:03.401Z,18.00
2022-08-19T23:42:32.681Z,17.98
2022-08-19T23:45:03.872Z,17.95
2022-08-19T23:47:32.508Z,17.92
2022-08-19T23:50:02.295Z,17.90
2022-08-19T23:52:33.945Z,17.89
2022-08-19T23:55:03.281Z,17.90
2022-08-19T23:57:31.816Z,17.90
